West Storm Lake, Iowa
Current Conditions -  °F | °C
As of 2:35 AM on Saturday 22 Nov 2014 (Local Time) from KSLB Reporting Station
Moderate Fog Moderate Fog  
Wind Chill: 24°   Ceiling: 200
Heat Index: 34°   Visibility: 0.25mi
Dew Point: 34°   Wind: 16mph
Humidity: 100%   Direction: 210°SSW
Pressure: 29.89"   Gusts: NA
Location:  42.674°N, 95.1635°W
Report Text: KSLB 220835Z AUTO 21014KT 1/4SM FG OVC002 01/01 A2989 RMK AO2
Loading
Personal Weather Stations






























Interactive Weather Map New forecast layout! Learn more

10-Day Weather Forecast

Advertisements
Track Severe Weather on mobile